createdAt,value
2023-12-24T00:02:36.340Z,1.37
2023-12-24T00:08:36.291Z,1.49
2023-12-24T00:14:36.281Z,1.51
2023-12-24T00:20:36.207Z,1.79
2023-12-24T00:26:36.246Z,1.54
2023-12-24T00:32:36.291Z,1.34
2023-12-24T00:38:36.272Z,1.08
2023-12-24T00:44:36.310Z,1.25
2023-12-24T00:50:36.255Z,1.29
2023-12-24T00:56:36.278Z,1.25
2023-12-24T01:02:36.357Z,1.22
2023-12-24T01:08:36.254Z,1.44
2023-12-24T01:14:36.296Z,1.24
2023-12-24T01:20:36.304Z,1.59
2023-12-24T01:26:36.244Z,1.52
2023-12-24T01:32:36.340Z,1.49
2023-12-24T01:38:36.352Z,1.40
2023-12-24T01:44:36.317Z,1.35
2023-12-24T01:50:36.335Z,1.32
2023-12-24T01:56:36.298Z,1.46
2023-12-24T02:02:36.396Z,1.44
2023-12-24T02:08:36.334Z,1.52
2023-12-24T02:14:36.367Z,1.63
2023-12-24T02:20:36.332Z,1.55
2023-12-24T02:26:36.341Z,2.06
2023-12-24T02:32:36.389Z,2.06
2023-12-24T02:38:36.412Z,2.34
2023-12-24T02:44:36.341Z,2.21
2023-12-24T02:50:36.429Z,3.69
2023-12-24T02:56:36.406Z,6.56
2023-12-24T03:02:36.439Z,7.12
2023-12-24T03:08:36.556Z,7.41
2023-12-24T03:14:36.391Z,8.29
2023-12-24T03:20:36.428Z,7.36
2023-12-24T03:26:36.354Z,8.28
2023-12-24T03:32:36.405Z,8.62
2023-12-24T03:38:36.330Z,7.91
2023-12-24T03:44:36.383Z,7.92
2023-12-24T03:50:36.434Z,8.50
2023-12-24T03:56:36.438Z,8.59
2023-12-24T04:02:36.433Z,8.29
2023-12-24T04:08:36.412Z,8.10
2023-12-24T04:14:36.510Z,8.08
2023-12-24T04:20:36.460Z,8.03
2023-12-24T04:26:36.420Z,8.04
2023-12-24T04:32:36.522Z,7.95
2023-12-24T04:38:36.491Z,7.86
2023-12-24T04:44:36.445Z,7.96
2023-12-24T04:50:36.510Z,7.71
2023-12-24T04:56:36.490Z,7.89
2023-12-24T05:02:36.487Z,7.87
2023-12-24T05:08:36.488Z,7.96
2023-12-24T05:14:36.475Z,7.82
2023-12-24T05:20:36.485Z,7.87
2023-12-24T05:26:36.523Z,8.13
2023-12-24T05:32:36.743Z,7.72
2023-12-24T05:38:36.470Z,7.73
2023-12-24T05:44:36.531Z,7.65
2023-12-24T05:50:36.446Z,7.62
2023-12-24T05:56:36.567Z,7.33
2023-12-24T06:02:36.575Z,7.13
2023-12-24T06:08:36.564Z,7.37
2023-12-24T06:14:36.551Z,7.36
2023-12-24T06:20:36.614Z,7.78
2023-12-24T06:26:36.487Z,7.90
2023-12-24T06:32:36.604Z,7.79
2023-12-24T06:38:36.557Z,8.04
2023-12-24T06:44:36.485Z,8.24
2023-12-24T06:50:36.543Z,8.47
2023-12-24T06:56:36.674Z,8.48
2023-12-24T07:02:36.518Z,8.32
2023-12-24T07:08:36.491Z,8.85
2023-12-24T07:14:36.498Z,8.90
2023-12-24T07:20:36.509Z,8.95
2023-12-24T07:26:36.553Z,9.07
2023-12-24T07:32:36.606Z,8.80
2023-12-24T07:38:36.564Z,8.99
2023-12-24T07:44:36.553Z,8.49
2023-12-24T07:50:36.716Z,8.97
2023-12-24T07:56:36.613Z,9.00
2023-12-24T08:02:36.586Z,9.18
2023-12-24T08:08:36.675Z,9.16
2023-12-24T08:14:36.791Z,9.23
2023-12-24T08:20:36.711Z,9.53
2023-12-24T08:26:36.623Z,9.44
2023-12-24T08:32:36.679Z,9.46
2023-12-24T08:38:36.879Z,9.48
2023-12-24T08:44:36.708Z,9.45
2023-12-24T08:50:36.590Z,9.58
2023-12-24T08:56:36.606Z,9.47
2023-12-24T09:02:36.658Z,9.13
2023-12-24T09:08:36.692Z,8.92
2023-12-24T09:14:36.669Z,9.02
2023-12-24T09:20:36.715Z,9.28
2023-12-24T09:26:36.682Z,9.62
2023-12-24T09:32:36.756Z,9.34
2023-12-24T09:38:36.670Z,9.40
2023-12-24T09:44:36.715Z,9.40
2023-12-24T09:50:36.704Z,9.52
2023-12-24T09:56:36.791Z,8.85
2023-12-24T10:02:36.671Z,8.85
2023-12-24T10:08:36.745Z,8.92
2023-12-24T10:14:36.912Z,7.72
2023-12-24T10:20:36.739Z,7.89
2023-12-24T10:26:36.706Z,8.30
2023-12-24T10:32:36.971Z,8.26
2023-12-24T10:38:36.766Z,8.01
2023-12-24T10:44:36.879Z,7.44
2023-12-24T10:50:36.745Z,7.87
2023-12-24T10:56:36.697Z,7.72
2023-12-24T11:02:36.748Z,9.09
2023-12-24T11:08:36.751Z,9.29
2023-12-24T11:14:36.728Z,9.27
2023-12-24T11:20:36.790Z,9.65
2023-12-24T11:26:36.764Z,10.81
2023-12-24T11:32:36.845Z,10.89
2023-12-24T11:38:37.368Z,10.87
2023-12-24T11:44:36.778Z,10.98
2023-12-24T11:50:36.857Z,11.07
2023-12-24T11:56:36.782Z,10.94
2023-12-24T12:02:36.755Z,11.00
2023-12-24T12:08:36.766Z,10.74
2023-12-24T12:14:36.789Z,10.15
2023-12-24T12:20:36.816Z,10.68
2023-12-24T12:26:36.847Z,10.58
2023-12-24T12:32:36.943Z,10.56
2023-12-24T12:38:36.910Z,10.68
2023-12-24T12:44:36.820Z,11.01
2023-12-24T12:50:36.825Z,10.92
2023-12-24T12:56:36.809Z,11.08
2023-12-24T13:02:36.835Z,11.10
2023-12-24T13:08:36.849Z,11.19
2023-12-24T13:14:36.887Z,11.12
2023-12-24T13:20:36.826Z,11.34
2023-12-24T13:26:36.879Z,11.13
2023-12-24T13:32:36.883Z,11.50
2023-12-24T13:38:36.925Z,11.29
2023-12-24T13:44:36.872Z,11.11
2023-12-24T13:50:36.872Z,10.76
2023-12-24T13:56:36.876Z,10.70
2023-12-24T14:02:36.914Z,10.41
2023-12-24T14:08:36.912Z,10.05
2023-12-24T14:14:36.859Z,9.67
2023-12-24T14:20:36.976Z,8.92
2023-12-24T14:26:36.896Z,8.62
2023-12-24T14:32:36.956Z,8.47
2023-12-24T14:38:36.906Z,8.22
2023-12-24T14:44:36.916Z,7.79
2023-12-24T14:50:37.017Z,7.47
2023-12-24T14:56:36.900Z,7.25
2023-12-24T15:02:36.953Z,6.79
2023-12-24T15:08:36.920Z,6.41
2023-12-24T15:14:36.986Z,6.16
2023-12-24T15:20:36.995Z,5.82
2023-12-24T15:26:36.963Z,5.97
2023-12-24T15:32:36.994Z,5.84
2023-12-24T15:38:36.982Z,5.80
2023-12-24T15:44:37.005Z,5.62
2023-12-24T15:50:36.980Z,5.50
2023-12-24T15:56:36.969Z,5.55
2023-12-24T16:02:36.948Z,5.50
2023-12-24T16:08:36.985Z,5.65
2023-12-24T16:14:36.960Z,5.70
2023-12-24T16:20:36.966Z,5.73
2023-12-24T16:26:37.466Z,5.61
2023-12-24T16:32:37.132Z,5.45
2023-12-24T16:38:36.999Z,5.39
2023-12-24T16:44:36.968Z,5.24
2023-12-24T16:50:37.001Z,5.49
2023-12-24T16:56:37.002Z,5.33
2023-12-24T17:02:37.020Z,5.41
2023-12-24T17:08:37.006Z,5.44
2023-12-24T17:14:37.100Z,5.46
2023-12-24T17:20:37.073Z,5.35
2023-12-24T17:26:37.054Z,5.43
2023-12-24T17:32:37.142Z,5.38
2023-12-24T17:38:37.093Z,5.31
2023-12-24T17:44:37.041Z,5.20
2023-12-24T17:50:37.086Z,5.36
2023-12-24T17:56:37.098Z,5.30
2023-12-24T18:02:37.217Z,5.32
2023-12-24T18:08:37.172Z,5.27
2023-12-24T18:14:37.094Z,5.14
2023-12-24T18:20:37.056Z,5.11
2023-12-24T18:26:37.125Z,5.28
2023-12-24T18:32:37.188Z,5.32
2023-12-24T18:38:37.484Z,5.14
2023-12-24T18:44:37.127Z,5.14
2023-12-24T18:50:37.134Z,5.13
2023-12-24T18:56:37.113Z,5.17
2023-12-24T19:02:37.109Z,4.89
2023-12-24T19:08:37.115Z,5.26
2023-12-24T19:14:37.113Z,5.18
2023-12-24T19:20:37.111Z,5.26
2023-12-24T19:26:37.153Z,5.33
2023-12-24T19:32:37.122Z,5.17
2023-12-24T19:38:37.125Z,5.33
2023-12-24T19:44:37.129Z,5.40
2023-12-24T19:50:37.213Z,5.42
2023-12-24T19:56:37.206Z,5.49
2023-12-24T20:02:37.189Z,5.58
2023-12-24T20:08:37.179Z,5.62
2023-12-24T20:14:37.182Z,5.42
2023-12-24T20:20:37.217Z,5.51
2023-12-24T20:26:37.233Z,5.66
2023-12-24T20:32:37.340Z,5.57
2023-12-24T20:38:37.267Z,5.54
2023-12-24T20:44:37.202Z,5.56
2023-12-24T20:50:37.289Z,5.53
2023-12-24T20:56:37.223Z,5.69
2023-12-24T21:02:37.437Z,5.47
2023-12-24T21:08:37.248Z,5.67
2023-12-24T21:14:37.245Z,5.61
2023-12-24T21:20:37.259Z,5.54
2023-12-24T21:26:37.217Z,5.77
2023-12-24T21:32:37.300Z,6.39
2023-12-24T21:38:37.216Z,6.17
2023-12-24T21:44:37.254Z,6.11
2023-12-24T21:50:37.319Z,5.90
2023-12-24T21:56:37.242Z,5.92
2023-12-24T22:02:37.294Z,6.29
2023-12-24T22:08:37.332Z,5.76
2023-12-24T22:14:37.301Z,5.87
2023-12-24T22:20:37.298Z,5.87
2023-12-24T22:26:37.278Z,5.77
2023-12-24T22:32:37.457Z,5.81
2023-12-24T22:38:37.336Z,5.48
2023-12-24T22:44:37.320Z,5.50
2023-12-24T22:50:37.292Z,5.42
2023-12-24T22:56:37.337Z,5.39
2023-12-24T23:02:37.298Z,5.44
2023-12-24T23:08:37.322Z,5.35
2023-12-24T23:14:37.312Z,5.23
2023-12-24T23:20:37.372Z,5.35
2023-12-24T23:26:37.499Z,5.23
2023-12-24T23:32:37.410Z,5.28
2023-12-24T23:38:37.375Z,5.28
2023-12-24T23:44:37.372Z,5.29
2023-12-24T23:50:37.338Z,5.33
2023-12-24T23:56:37.397Z,5.24
